sensor_id;sensor_type;location;lat;lon;timestamp;temperature;humidity
15107;DHT22;7654;45.308;-75.096;2023-04-25T00:01:58;6.60;99.90
15107;DHT22;7654;45.308;-75.096;2023-04-25T00:04:28;6.40;99.90
15107;DHT22;7654;45.308;-75.096;2023-04-25T00:07:03;6.20;99.90
15107;DHT22;7654;45.308;-75.096;2023-04-25T00:09:33;6.10;99.90
15107;DHT22;7654;45.308;-75.096;2023-04-25T00:12:04;6.10;99.90
15107;DHT22;7654;45.308;-75.096;2023-04-25T00:14:34;6.10;99.90
15107;DHT22;7654;45.308;-75.096;2023-04-25T00:17:05;6.10;99.90
15107;DHT22;7654;45.308;-75.096;2023-04-25T00:19:35;6.10;99.90
15107;DHT22;7654;45.308;-75.096;2023-04-25T00:22:10;6.10;99.90
15107;DHT22;7654;45.308;-75.096;2023-04-25T00:24:41;6.20;99.90
15107;DHT22;7654;45.308;-75.096;2023-04-25T00:27:12;6.20;99.90
15107;DHT22;7654;45.308;-75.096;2023-04-25T00:29:44;6.20;99.90
15107;DHT22;7654;45.308;-75.096;2023-04-25T00:32:14;6.10;99.90
15107;DHT22;7654;45.308;-75.096;2023-04-25T00:34:45;6.00;99.90
15107;DHT22;7654;45.308;-75.096;2023-04-25T00:37:17;5.80;99.90
15107;DHT22;7654;45.308;-75.096;2023-04-25T00:39:48;5.60;99.90
15107;DHT22;7654;45.308;-75.096;2023-04-25T00:42:20;5.40;99.90
15107;DHT22;7654;45.308;-75.096;2023-04-25T00:44:52;5.10;99.90
15107;DHT22;7654;45.308;-75.096;2023-04-25T00:47:23;4.90;99.90
15107;DHT22;7654;45.308;-75.096;2023-04-25T00:49:54;4.80;99.90
15107;DHT22;7654;45.308;-75.096;2023-04-25T00:52:26;4.80;99.90
15107;DHT22;7654;45.308;-75.096;2023-04-25T00:54:56;4.80;99.90
15107;DHT22;7654;45.308;-75.096;2023-04-25T00:57:27;4.80;99.90
15107;DHT22;7654;45.308;-75.096;2023-04-25T00:59:58;4.70;99.90
15107;DHT22;7654;45.308;-75.096;2023-04-25T01:02:29;4.90;99.90
15107;DHT22;7654;45.308;-75.096;2023-04-25T01:05:00;5.10;99.90
15107;DHT22;7654;45.308;-75.096;2023-04-25T01:07:35;5.30;99.90
15107;DHT22;7654;45.308;-75.096;2023-04-25T01:10:07;5.50;99.90
15107;DHT22;7654;45.308;-75.096;2023-04-25T01:12:38;5.60;99.90
15107;DHT22;7654;45.308;-75.096;2023-04-25T01:15:08;5.70;99.90
15107;DHT22;7654;45.308;-75.096;2023-04-25T01:17:39;5.80;99.90
15107;DHT22;7654;45.308;-75.096;2023-04-25T01:20:11;5.80;99.90
15107;DHT22;7654;45.308;-75.096;2023-04-25T01:22:45;5.80;99.90
15107;DHT22;7654;45.308;-75.096;2023-04-25T01:25:17;5.80;99.90
15107;DHT22;7654;45.308;-75.096;2023-04-25T01:27:47;5.80;99.90
15107;DHT22;7654;45.308;-75.096;2023-04-25T01:30:18;5.80;99.90
15107;DHT22;7654;45.308;-75.096;2023-04-25T01:32:49;5.80;99.90
15107;DHT22;7654;45.308;-75.096;2023-04-25T01:35:20;5.70;99.90
15107;DHT22;7654;45.308;-75.096;2023-04-25T01:37:54;5.60;99.90
15107;DHT22;7654;45.308;-75.096;2023-04-25T01:40:24;5.50;99.90
15107;DHT22;7654;45.308;-75.096;2023-04-25T01:42:55;5.40;99.90
15107;DHT22;7654;45.308;-75.096;2023-04-25T01:45:25;5.30;99.90
15107;DHT22;7654;45.308;-75.096;2023-04-25T01:47:56;5.20;99.90
15107;DHT22;7654;45.308;-75.096;2023-04-25T01:50:27;5.20;99.90
15107;DHT22;7654;45.308;-75.096;2023-04-25T01:53:00;5.10;99.90
15107;DHT22;7654;45.308;-75.096;2023-04-25T01:55:31;5.00;99.90
15107;DHT22;7654;45.308;-75.096;2023-04-25T01:58:02;5.00;99.90
15107;DHT22;7654;45.308;-75.096;2023-04-25T02:00:37;5.00;99.90
15107;DHT22;7654;45.308;-75.096;2023-04-25T02:03:09;4.90;99.90
15107;DHT22;7654;45.308;-75.096;2023-04-25T02:05:39;4.90;99.90
15107;DHT22;7654;45.308;-75.096;2023-04-25T02:08:12;4.80;99.90
15107;DHT22;7654;45.308;-75.096;2023-04-25T02:10:43;4.80;99.90
15107;DHT22;7654;45.308;-75.096;2023-04-25T02:13:13;4.80;99.90
15107;DHT22;7654;45.308;-75.096;2023-04-25T02:15:44;4.80;99.90
15107;DHT22;7654;45.308;-75.096;2023-04-25T02:18:15;4.70;99.90
15107;DHT22;7654;45.308;-75.096;2023-04-25T02:20:46;4.60;99.90
15107;DHT22;7654;45.308;-75.096;2023-04-25T02:23:18;4.50;99.90
15107;DHT22;7654;45.308;-75.096;2023-04-25T02:25:49;4.40;99.90
15107;DHT22;7654;45.308;-75.096;2023-04-25T02:28:19;4.30;99.90
15107;DHT22;7654;45.308;-75.096;2023-04-25T02:30:49;4.30;99.90
15107;DHT22;7654;45.308;-75.096;2023-04-25T02:33:20;4.30;99.90
15107;DHT22;7654;45.308;-75.096;2023-04-25T02:35:50;4.40;99.90
15107;DHT22;7654;45.308;-75.096;2023-04-25T02:38:22;4.60;99.90
15107;DHT22;7654;45.308;-75.096;2023-04-25T02:40:53;4.70;99.90
15107;DHT22;7654;45.308;-75.096;2023-04-25T02:43:24;4.90;99.90
15107;DHT22;7654;45.308;-75.096;2023-04-25T02:45:54;5.10;99.90
15107;DHT22;7654;45.308;-75.096;2023-04-25T02:48:24;5.10;99.90
15107;DHT22;7654;45.308;-75.096;2023-04-25T02:50:54;5.20;99.90
15107;DHT22;7654;45.308;-75.096;2023-04-25T02:53:26;5.30;99.90
15107;DHT22;7654;45.308;-75.096;2023-04-25T02:55:56;5.30;99.90
15107;DHT22;7654;45.308;-75.096;2023-04-25T02:58:27;5.30;99.90
15107;DHT22;7654;45.308;-75.096;2023-04-25T03:00:57;5.30;99.90
15107;DHT22;7654;45.308;-75.096;2023-04-25T03:03:29;5.30;99.90
15107;DHT22;7654;45.308;-75.096;2023-04-25T03:05:59;5.30;99.90
15107;DHT22;7654;45.308;-75.096;2023-04-25T03:08:32;5.30;99.90
15107;DHT22;7654;45.308;-75.096;2023-04-25T03:11:02;5.30;99.90
15107;DHT22;7654;45.308;-75.096;2023-04-25T03:13:33;5.30;99.90
15107;DHT22;7654;45.308;-75.096;2023-04-25T03:16:03;5.20;99.90
15107;DHT22;7654;45.308;-75.096;2023-04-25T03:18:34;5.30;99.90
15107;DHT22;7654;45.308;-75.096;2023-04-25T03:21:05;5.30;99.90
15107;DHT22;7654;45.308;-75.096;2023-04-25T03:23:37;5.30;99.90
15107;DHT22;7654;45.308;-75.096;2023-04-25T03:26:07;5.30;99.90
15107;DHT22;7654;45.308;-75.096;2023-04-25T03:28:38;5.40;99.90
15107;DHT22;7654;45.308;-75.096;2023-04-25T03:31:08;5.30;99.90
15107;DHT22;7654;45.308;-75.096;2023-04-25T03:33:38;5.30;99.90
15107;DHT22;7654;45.308;-75.096;2023-04-25T03:36:09;5.30;99.90
15107;DHT22;7654;45.308;-75.096;2023-04-25T03:38:41;5.40;99.90
15107;DHT22;7654;45.308;-75.096;2023-04-25T03:41:11;5.50;99.90
15107;DHT22;7654;45.308;-75.096;2023-04-25T03:43:42;5.50;99.90
15107;DHT22;7654;45.308;-75.096;2023-04-25T03:46:12;5.50;99.90
15107;DHT22;7654;45.308;-75.096;2023-04-25T03:48:42;5.50;99.90
15107;DHT22;7654;45.308;-75.096;2023-04-25T03:51:13;5.40;99.90
15107;DHT22;7654;45.308;-75.096;2023-04-25T03:53:46;5.40;99.90
15107;DHT22;7654;45.308;-75.096;2023-04-25T03:56:16;5.30;99.90
15107;DHT22;7654;45.308;-75.096;2023-04-25T03:58:46;5.30;99.90
15107;DHT22;7654;45.308;-75.096;2023-04-25T04:01:17;5.30;99.90
15107;DHT22;7654;45.308;-75.096;2023-04-25T04:03:47;5.30;99.90
15107;DHT22;7654;45.308;-75.096;2023-04-25T04:06:18;5.30;99.90
15107;DHT22;7654;45.308;-75.096;2023-04-25T04:08:50;5.30;99.90
15107;DHT22;7654;45.308;-75.096;2023-04-25T04:11:21;5.20;99.90
15107;DHT22;7654;45.308;-75.096;2023-04-25T04:13:51;5.20;99.90
15107;DHT22;7654;45.308;-75.096;2023-04-25T04:16:22;5.30;99.90
15107;DHT22;7654;45.308;-75.096;2023-04-25T04:18:53;5.30;99.90
15107;DHT22;7654;45.308;-75.096;2023-04-25T04:21:23;5.40;99.90
15107;DHT22;7654;45.308;-75.096;2023-04-25T04:23:57;5.40;99.90
15107;DHT22;7654;45.308;-75.096;2023-04-25T04:26:28;5.50;99.90
15107;DHT22;7654;45.308;-75.096;2023-04-25T04:29:00;5.50;99.90
15107;DHT22;7654;45.308;-75.096;2023-04-25T04:31:30;5.50;99.90
15107;DHT22;7654;45.308;-75.096;2023-04-25T04:34:01;5.40;99.90
15107;DHT22;7654;45.308;-75.096;2023-04-25T04:36:31;5.40;99.90
15107;DHT22;7654;45.308;-75.096;2023-04-25T04:39:05;5.40;99.90
15107;DHT22;7654;45.308;-75.096;2023-04-25T04:41:37;5.30;99.90
15107;DHT22;7654;45.308;-75.096;2023-04-25T04:44:08;5.30;99.90
15107;DHT22;7654;45.308;-75.096;2023-04-25T04:46:38;5.20;99.90
15107;DHT22;7654;45.308;-75.096;2023-04-25T04:49:10;5.20;99.90
15107;DHT22;7654;45.308;-75.096;2023-04-25T04:51:41;5.20;99.90
15107;DHT22;7654;45.308;-75.096;2023-04-25T04:54:14;5.30;99.90
15107;DHT22;7654;45.308;-75.096;2023-04-25T04:56:44;5.30;99.90
15107;DHT22;7654;45.308;-75.096;2023-04-25T04:59:15;5.40;99.90
15107;DHT22;7654;45.308;-75.096;2023-04-25T05:01:45;5.40;99.90
15107;DHT22;7654;45.308;-75.096;2023-04-25T05:04:15;5.40;99.90
15107;DHT22;7654;45.308;-75.096;2023-04-25T05:06:46;5.40;99.90
15107;DHT22;7654;45.308;-75.096;2023-04-25T05:09:18;5.50;99.90
15107;DHT22;7654;45.308;-75.096;2023-04-25T05:11:48;5.50;99.90
15107;DHT22;7654;45.308;-75.096;2023-04-25T05:14:19;5.50;99.90
15107;DHT22;7654;45.308;-75.096;2023-04-25T05:16:49;5.40;99.90
15107;DHT22;7654;45.308;-75.096;2023-04-25T05:19:20;5.40;99.90
15107;DHT22;7654;45.308;-75.096;2023-04-25T05:21:51;5.40;99.90
15107;DHT22;7654;45.308;-75.096;2023-04-25T05:24:23;5.30;99.90
15107;DHT22;7654;45.308;-75.096;2023-04-25T05:26:54;5.30;99.90
15107;DHT22;7654;45.308;-75.096;2023-04-25T05:29:24;5.30;99.90
15107;DHT22;7654;45.308;-75.096;2023-04-25T05:31:55;5.30;99.90
15107;DHT22;7654;45.308;-75.096;2023-04-25T05:34:25;5.30;99.90
15107;DHT22;7654;45.308;-75.096;2023-04-25T05:36:55;5.40;99.90
15107;DHT22;7654;45.308;-75.096;2023-04-25T05:39:27;5.40;99.90
15107;DHT22;7654;45.308;-75.096;2023-04-25T05:41:58;5.40;99.90
15107;DHT22;7654;45.308;-75.096;2023-04-25T05:44:30;5.30;99.90
15107;DHT22;7654;45.308;-75.096;2023-04-25T05:47:01;5.30;99.90
15107;DHT22;7654;45.308;-75.096;2023-04-25T05:49:32;5.30;99.90
15107;DHT22;7654;45.308;-75.096;2023-04-25T05:52:03;5.30;99.90
15107;DHT22;7654;45.308;-75.096;2023-04-25T05:54:35;5.20;99.90
15107;DHT22;7654;45.308;-75.096;2023-04-25T05:57:06;5.20;99.90
15107;DHT22;7654;45.308;-75.096;2023-04-25T05:59:36;5.20;99.90
15107;DHT22;7654;45.308;-75.096;2023-04-25T06:02:06;5.20;99.90
15107;DHT22;7654;45.308;-75.096;2023-04-25T06:04:37;5.20;99.90
15107;DHT22;7654;45.308;-75.096;2023-04-25T06:07:08;5.20;99.90
15107;DHT22;7654;45.308;-75.096;2023-04-25T06:09:40;5.20;99.90
15107;DHT22;7654;45.308;-75.096;2023-04-25T06:12:10;5.20;99.90
15107;DHT22;7654;45.308;-75.096;2023-04-25T06:14:41;5.20;99.90
15107;DHT22;7654;45.308;-75.096;2023-04-25T06:17:12;5.30;99.90
15107;DHT22;7654;45.308;-75.096;2023-04-25T06:19:42;5.30;99.90
15107;DHT22;7654;45.308;-75.096;2023-04-25T06:22:13;5.30;99.90
15107;DHT22;7654;45.308;-75.096;2023-04-25T06:24:45;5.30;99.90
15107;DHT22;7654;45.308;-75.096;2023-04-25T06:27:15;5.30;99.90
15107;DHT22;7654;45.308;-75.096;2023-04-25T06:29:45;5.30;99.90
15107;DHT22;7654;45.308;-75.096;2023-04-25T06:32:16;5.30;99.90
15107;DHT22;7654;45.308;-75.096;2023-04-25T06:34:46;5.30;99.90
15107;DHT22;7654;45.308;-75.096;2023-04-25T06:37:17;5.30;99.90
15107;DHT22;7654;45.308;-75.096;2023-04-25T06:39:48;5.30;99.90
15107;DHT22;7654;45.308;-75.096;2023-04-25T06:42:20;5.30;99.90
15107;DHT22;7654;45.308;-75.096;2023-04-25T06:44:50;5.20;99.90
15107;DHT22;7654;45.308;-75.096;2023-04-25T06:47:20;5.20;99.90
15107;DHT22;7654;45.308;-75.096;2023-04-25T06:49:51;5.10;99.90
15107;DHT22;7654;45.308;-75.096;2023-04-25T06:52:22;5.10;99.90
15107;DHT22;7654;45.308;-75.096;2023-04-25T06:54:53;5.00;99.90
15107;DHT22;7654;45.308;-75.096;2023-04-25T06:57:24;5.00;99.90
15107;DHT22;7654;45.308;-75.096;2023-04-25T06:59:54;4.90;99.90
15107;DHT22;7654;45.308;-75.096;2023-04-25T07:02:28;4.90;99.90
15107;DHT22;7654;45.308;-75.096;2023-04-25T07:04:58;4.80;99.90
15107;DHT22;7654;45.308;-75.096;2023-04-25T07:07:28;4.70;99.90
15107;DHT22;7654;45.308;-75.096;2023-04-25T07:10:01;4.70;99.90
15107;DHT22;7654;45.308;-75.096;2023-04-25T07:12:31;4.60;99.90
15107;DHT22;7654;45.308;-75.096;2023-04-25T07:15:01;4.50;99.90
15107;DHT22;7654;45.308;-75.096;2023-04-25T07:17:34;4.40;99.90
15107;DHT22;7654;45.308;-75.096;2023-04-25T07:20:05;4.40;99.90
15107;DHT22;7654;45.308;-75.096;2023-04-25T07:22:37;4.20;99.90
15107;DHT22;7654;45.308;-75.096;2023-04-25T07:25:09;4.10;99.90
15107;DHT22;7654;45.308;-75.096;2023-04-25T07:27:40;4.00;99.90
15107;DHT22;7654;45.308;-75.096;2023-04-25T07:30:12;3.90;99.90
15107;DHT22;7654;45.308;-75.096;2023-04-25T07:32:42;3.70;99.90
15107;DHT22;7654;45.308;-75.096;2023-04-25T07:35:13;3.60;99.90
15107;DHT22;7654;45.308;-75.096;2023-04-25T07:37:43;3.40;99.90
15107;DHT22;7654;45.308;-75.096;2023-04-25T07:40:16;3.10;99.90
15107;DHT22;7654;45.308;-75.096;2023-04-25T07:42:46;2.90;99.90
15107;DHT22;7654;45.308;-75.096;2023-04-25T07:45:17;2.80;99.90
15107;DHT22;7654;45.308;-75.096;2023-04-25T07:47:47;2.60;99.90
15107;DHT22;7654;45.308;-75.096;2023-04-25T07:50:17;2.50;99.90
15107;DHT22;7654;45.308;-75.096;2023-04-25T07:52:48;2.50;99.90
15107;DHT22;7654;45.308;-75.096;2023-04-25T07:55:20;2.60;99.90
15107;DHT22;7654;45.308;-75.096;2023-04-25T07:57:50;2.60;99.90
15107;DHT22;7654;45.308;-75.096;2023-04-25T08:00:21;2.60;99.90
15107;DHT22;7654;45.308;-75.096;2023-04-25T08:02:51;2.60;99.90
15107;DHT22;7654;45.308;-75.096;2023-04-25T08:05:21;2.50;99.90
15107;DHT22;7654;45.308;-75.096;2023-04-25T08:07:52;2.40;99.90
15107;DHT22;7654;45.308;-75.096;2023-04-25T08:10:24;2.30;99.90
15107;DHT22;7654;45.308;-75.096;2023-04-25T08:12:54;2.20;99.90
15107;DHT22;7654;45.308;-75.096;2023-04-25T08:15:25;2.10;99.90
15107;DHT22;7654;45.308;-75.096;2023-04-25T08:17:55;2.00;99.90
15107;DHT22;7654;45.308;-75.096;2023-04-25T08:20:26;1.80;99.90
15107;DHT22;7654;45.308;-75.096;2023-04-25T08:22:56;1.80;99.90
15107;DHT22;7654;45.308;-75.096;2023-04-25T08:25:28;1.80;99.90
15107;DHT22;7654;45.308;-75.096;2023-04-25T08:27:59;1.80;99.90
15107;DHT22;7654;45.308;-75.096;2023-04-25T08:30:31;1.80;99.90
15107;DHT22;7654;45.308;-75.096;2023-04-25T08:33:01;1.80;99.90
15107;DHT22;7654;45.308;-75.096;2023-04-25T08:35:32;1.80;99.90
15107;DHT22;7654;45.308;-75.096;2023-04-25T08:38:03;1.80;99.90
15107;DHT22;7654;45.308;-75.096;2023-04-25T08:40:38;1.70;99.90
15107;DHT22;7654;45.308;-75.096;2023-04-25T08:43:09;1.60;99.90
15107;DHT22;7654;45.308;-75.096;2023-04-25T08:45:43;1.60;99.90
15107;DHT22;7654;45.308;-75.096;2023-04-25T08:48:15;1.50;99.90
15107;DHT22;7654;45.308;-75.096;2023-04-25T08:50:50;1.50;99.90
15107;DHT22;7654;45.308;-75.096;2023-04-25T08:53:26;1.50;99.90
15107;DHT22;7654;45.308;-75.096;2023-04-25T08:56:00;1.40;99.90
15107;DHT22;7654;45.308;-75.096;2023-04-25T08:58:32;1.40;99.90
15107;DHT22;7654;45.308;-75.096;2023-04-25T09:01:04;1.30;99.90
15107;DHT22;7654;45.308;-75.096;2023-04-25T09:03:35;1.20;99.90
15107;DHT22;7654;45.308;-75.096;2023-04-25T09:06:06;1.10;99.90
15107;DHT22;7654;45.308;-75.096;2023-04-25T09:08:37;1.20;99.90
15107;DHT22;7654;45.308;-75.096;2023-04-25T09:11:10;1.10;99.90
15107;DHT22;7654;45.308;-75.096;2023-04-25T09:13:43;1.00;99.90
15107;DHT22;7654;45.308;-75.096;2023-04-25T09:16:13;1.00;99.90
15107;DHT22;7654;45.308;-75.096;2023-04-25T09:18:47;0.90;99.90
15107;DHT22;7654;45.308;-75.096;2023-04-25T09:21:17;0.90;99.90
15107;DHT22;7654;45.308;-75.096;2023-04-25T09:23:52;0.90;99.90
15107;DHT22;7654;45.308;-75.096;2023-04-25T09:26:26;0.90;99.90
15107;DHT22;7654;45.308;-75.096;2023-04-25T09:29:05;1.00;99.90
15107;DHT22;7654;45.308;-75.096;2023-04-25T09:31:36;1.00;99.90
15107;DHT22;7654;45.308;-75.096;2023-04-25T09:34:07;1.20;99.90
15107;DHT22;7654;45.308;-75.096;2023-04-25T09:36:40;1.30;99.90
15107;DHT22;7654;45.308;-75.096;2023-04-25T09:39:13;1.40;99.90
15107;DHT22;7654;45.308;-75.096;2023-04-25T09:41:47;1.50;99.90
15107;DHT22;7654;45.308;-75.096;2023-04-25T09:44:23;1.50;99.90
15107;DHT22;7654;45.308;-75.096;2023-04-25T09:46:55;1.60;99.90
15107;DHT22;7654;45.308;-75.096;2023-04-25T09:49:28;1.70;99.90
15107;DHT22;7654;45.308;-75.096;2023-04-25T09:51:58;1.80;99.90
15107;DHT22;7654;45.308;-75.096;2023-04-25T09:54:29;2.00;99.90
15107;DHT22;7654;45.308;-75.096;2023-04-25T09:57:06;2.20;99.90
15107;DHT22;7654;45.308;-75.096;2023-04-25T09:59:43;2.30;99.90
15107;DHT22;7654;45.308;-75.096;2023-04-25T10:02:15;2.30;99.90
15107;DHT22;7654;45.308;-75.096;2023-04-25T10:04:48;2.40;99.90
15107;DHT22;7654;45.308;-75.096;2023-04-25T10:07:22;2.40;99.90
15107;DHT22;7654;45.308;-75.096;2023-04-25T10:09:58;2.40;99.90
15107;DHT22;7654;45.308;-75.096;2023-04-25T10:12:33;2.40;99.90
15107;DHT22;7654;45.308;-75.096;2023-04-25T10:15:04;2.40;99.90
15107;DHT22;7654;45.308;-75.096;2023-04-25T10:17:36;2.50;99.90
15107;DHT22;7654;45.308;-75.096;2023-04-25T10:20:08;2.50;99.90
15107;DHT22;7654;45.308;-75.096;2023-04-25T10:22:42;2.60;99.90
15107;DHT22;7654;45.308;-75.096;2023-04-25T10:25:13;2.60;99.90
15107;DHT22;7654;45.308;-75.096;2023-04-25T10:27:45;2.70;99.90
15107;DHT22;7654;45.308;-75.096;2023-04-25T10:30:16;2.70;99.90
15107;DHT22;7654;45.308;-75.096;2023-04-25T10:32:47;2.80;99.90
15107;DHT22;7654;45.308;-75.096;2023-04-25T10:35:25;2.80;99.90
15107;DHT22;7654;45.308;-75.096;2023-04-25T10:38:03;2.90;99.90
15107;DHT22;7654;45.308;-75.096;2023-04-25T10:40:35;3.00;99.90
15107;DHT22;7654;45.308;-75.096;2023-04-25T10:43:38;3.00;99.90
15107;DHT22;7654;45.308;-75.096;2023-04-25T10:46:16;3.00;99.90
15107;DHT22;7654;45.308;-75.096;2023-04-25T10:48:49;3.10;99.90
15107;DHT22;7654;45.308;-75.096;2023-04-25T10:51:21;3.10;99.90
15107;DHT22;7654;45.308;-75.096;2023-04-25T10:54:00;3.20;99.90
15107;DHT22;7654;45.308;-75.096;2023-04-25T10:56:31;3.20;99.90
15107;DHT22;7654;45.308;-75.096;2023-04-25T10:59:19;3.20;99.90
15107;DHT22;7654;45.308;-75.096;2023-04-25T11:01:52;3.30;99.90
15107;DHT22;7654;45.308;-75.096;2023-04-25T11:04:24;3.40;99.90
15107;DHT22;7654;45.308;-75.096;2023-04-25T11:07:02;3.40;99.90
15107;DHT22;7654;45.308;-75.096;2023-04-25T11:09:35;3.40;99.90
15107;DHT22;7654;45.308;-75.096;2023-04-25T11:12:08;3.50;99.90
15107;DHT22;7654;45.308;-75.096;2023-04-25T11:14:41;3.50;99.90
15107;DHT22;7654;45.308;-75.096;2023-04-25T11:17:12;3.60;99.90
15107;DHT22;7654;45.308;-75.096;2023-04-25T11:19:42;3.60;99.90
15107;DHT22;7654;45.308;-75.096;2023-04-25T11:22:12;3.60;99.90
15107;DHT22;7654;45.308;-75.096;2023-04-25T11:24:43;3.60;99.90
15107;DHT22;7654;45.308;-75.096;2023-04-25T11:27:13;3.60;99.90
15107;DHT22;7654;45.308;-75.096;2023-04-25T11:29:45;3.60;99.90
15107;DHT22;7654;45.308;-75.096;2023-04-25T11:32:17;3.60;99.90
15107;DHT22;7654;45.308;-75.096;2023-04-25T11:34:48;3.60;99.90
15107;DHT22;7654;45.308;-75.096;2023-04-25T11:37:18;3.60;99.90
15107;DHT22;7654;45.308;-75.096;2023-04-25T11:39:49;3.60;99.90
15107;DHT22;7654;45.308;-75.096;2023-04-25T11:42:20;3.60;99.90
15107;DHT22;7654;45.308;-75.096;2023-04-25T11:44:52;3.60;99.90
15107;DHT22;7654;45.308;-75.096;2023-04-25T11:47:28;3.60;99.90
15107;DHT22;7654;45.308;-75.096;2023-04-25T11:50:00;3.60;99.90
15107;DHT22;7654;45.308;-75.096;2023-04-25T11:52:38;3.60;99.90
15107;DHT22;7654;45.308;-75.096;2023-04-25T11:55:12;3.70;99.90
15107;DHT22;7654;45.308;-75.096;2023-04-25T11:57:45;3.80;99.90
15107;DHT22;7654;45.308;-75.096;2023-04-25T12:00:18;3.90;99.90
15107;DHT22;7654;45.308;-75.096;2023-04-25T12:02:53;4.00;99.90
15107;DHT22;7654;45.308;-75.096;2023-04-25T12:05:27;4.10;99.90
15107;DHT22;7654;45.308;-75.096;2023-04-25T12:08:10;4.40;99.90
15107;DHT22;7654;45.308;-75.096;2023-04-25T12:10:43;4.60;99.90
15107;DHT22;7654;45.308;-75.096;2023-04-25T12:13:21;4.70;99.90
15107;DHT22;7654;45.308;-75.096;2023-04-25T12:15:54;4.80;99.90
15107;DHT22;7654;45.308;-75.096;2023-04-25T12:18:25;4.80;99.90
15107;DHT22;7654;45.308;-75.096;2023-04-25T12:20:56;4.80;99.90
15107;DHT22;7654;45.308;-75.096;2023-04-25T12:23:28;4.90;99.90
15107;DHT22;7654;45.308;-75.096;2023-04-25T12:25:59;5.00;99.90
15107;DHT22;7654;45.308;-75.096;2023-04-25T12:28:32;5.10;99.90
15107;DHT22;7654;45.308;-75.096;2023-04-25T12:31:05;5.20;99.90
15107;DHT22;7654;45.308;-75.096;2023-04-25T12:33:37;5.30;99.90
15107;DHT22;7654;45.308;-75.096;2023-04-25T12:36:08;5.50;99.90
15107;DHT22;7654;45.308;-75.096;2023-04-25T12:38:40;5.60;99.90
15107;DHT22;7654;45.308;-75.096;2023-04-25T12:41:11;5.80;99.90
15107;DHT22;7654;45.308;-75.096;2023-04-25T12:43:42;6.00;99.90
15107;DHT22;7654;45.308;-75.096;2023-04-25T12:46:14;6.30;99.90
15107;DHT22;7654;45.308;-75.096;2023-04-25T12:48:44;6.50;99.90
15107;DHT22;7654;45.308;-75.096;2023-04-25T12:51:15;6.70;99.90
15107;DHT22;7654;45.308;-75.096;2023-04-25T12:53:45;6.90;99.90
15107;DHT22;7654;45.308;-75.096;2023-04-25T12:56:16;7.10;99.90
15107;DHT22;7654;45.308;-75.096;2023-04-25T12:58:50;7.30;99.90
15107;DHT22;7654;45.308;-75.096;2023-04-25T13:01:22;7.50;99.90
15107;DHT22;7654;45.308;-75.096;2023-04-25T13:03:53;7.60;99.90
15107;DHT22;7654;45.308;-75.096;2023-04-25T13:06:24;7.70;99.90
15107;DHT22;7654;45.308;-75.096;2023-04-25T13:08:54;7.90;99.90
15107;DHT22;7654;45.308;-75.096;2023-04-25T13:11:25;7.90;99.90
15107;DHT22;7654;45.308;-75.096;2023-04-25T13:13:55;8.00;99.90
15107;DHT22;7654;45.308;-75.096;2023-04-25T13:16:28;8.00;99.90
15107;DHT22;7654;45.308;-75.096;2023-04-25T13:18:58;8.00;99.90
15107;DHT22;7654;45.308;-75.096;2023-04-25T13:21:30;7.90;99.90
15107;DHT22;7654;45.308;-75.096;2023-04-25T13:24:01;7.70;99.90
15107;DHT22;7654;45.308;-75.096;2023-04-25T13:26:32;7.60;99.90
15107;DHT22;7654;45.308;-75.096;2023-04-25T13:29:02;7.40;99.90
15107;DHT22;7654;45.308;-75.096;2023-04-25T13:31:35;7.20;99.90
15107;DHT22;7654;45.308;-75.096;2023-04-25T13:34:05;7.20;99.90
15107;DHT22;7654;45.308;-75.096;2023-04-25T13:36:35;7.20;99.90
15107;DHT22;7654;45.308;-75.096;2023-04-25T13:39:06;7.10;99.90
15107;DHT22;7654;45.308;-75.096;2023-04-25T13:41:36;7.00;99.90
15107;DHT22;7654;45.308;-75.096;2023-04-25T13:44:07;7.00;99.90
15107;DHT22;7654;45.308;-75.096;2023-04-25T13:46:39;7.20;99.90
15107;DHT22;7654;45.308;-75.096;2023-04-25T13:49:14;7.20;99.90
15107;DHT22;7654;45.308;-75.096;2023-04-25T13:51:44;7.30;99.90
15107;DHT22;7654;45.308;-75.096;2023-04-25T13:54:15;7.40;99.90
15107;DHT22;7654;45.308;-75.096;2023-04-25T13:56:45;7.50;99.90
15107;DHT22;7654;45.308;-75.096;2023-04-25T13:59:17;7.70;99.90
15107;DHT22;7654;45.308;-75.096;2023-04-25T14:01:48;7.90;99.90
15107;DHT22;7654;45.308;-75.096;2023-04-25T14:04:19;8.00;99.90
15107;DHT22;7654;45.308;-75.096;2023-04-25T14:06:50;8.00;99.90
15107;DHT22;7654;45.308;-75.096;2023-04-25T14:09:20;8.00;99.90
15107;DHT22;7654;45.308;-75.096;2023-04-25T14:11:54;8.10;99.90
15107;DHT22;7654;45.308;-75.096;2023-04-25T14:14:25;8.20;99.90
15107;DHT22;7654;45.308;-75.096;2023-04-25T14:16:56;8.10;99.90
15107;DHT22;7654;45.308;-75.096;2023-04-25T14:19:27;8.10;99.90
15107;DHT22;7654;45.308;-75.096;2023-04-25T14:21:57;8.10;99.90
15107;DHT22;7654;45.308;-75.096;2023-04-25T14:24:28;8.10;99.90
15107;DHT22;7654;45.308;-75.096;2023-04-25T14:26:58;8.20;99.90
15107;DHT22;7654;45.308;-75.096;2023-04-25T14:29:29;8.20;99.90
15107;DHT22;7654;45.308;-75.096;2023-04-25T14:32:01;8.40;99.90
15107;DHT22;7654;45.308;-75.096;2023-04-25T14:34:32;8.50;99.90
15107;DHT22;7654;45.308;-75.096;2023-04-25T14:37:02;8.90;99.90
15107;DHT22;7654;45.308;-75.096;2023-04-25T14:39:33;9.50;99.90
15107;DHT22;7654;45.308;-75.096;2023-04-25T14:42:04;9.90;99.90
15107;DHT22;7654;45.308;-75.096;2023-04-25T14:44:38;10.20;99.90
15107;DHT22;7654;45.308;-75.096;2023-04-25T14:47:11;10.50;99.90
15107;DHT22;7654;45.308;-75.096;2023-04-25T14:49:41;10.60;99.90
15107;DHT22;7654;45.308;-75.096;2023-04-25T14:52:12;10.80;99.90
15107;DHT22;7654;45.308;-75.096;2023-04-25T14:54:43;10.90;99.90
15107;DHT22;7654;45.308;-75.096;2023-04-25T14:57:13;11.10;99.90
15107;DHT22;7654;45.308;-75.096;2023-04-25T14:59:43;11.10;99.90
15107;DHT22;7654;45.308;-75.096;2023-04-25T15:02:15;11.00;99.90
15107;DHT22;7654;45.308;-75.096;2023-04-25T15:04:46;10.90;99.90
15107;DHT22;7654;45.308;-75.096;2023-04-25T15:07:16;10.60;99.90
15107;DHT22;7654;45.308;-75.096;2023-04-25T15:09:48;10.40;99.90
15107;DHT22;7654;45.308;-75.096;2023-04-25T15:12:18;10.40;99.90
15107;DHT22;7654;45.308;-75.096;2023-04-25T15:14:48;10.50;99.90
15107;DHT22;7654;45.308;-75.096;2023-04-25T15:17:20;10.40;99.90
15107;DHT22;7654;45.308;-75.096;2023-04-25T15:19:51;10.30;99.90
15107;DHT22;7654;45.308;-75.096;2023-04-25T15:22:22;10.60;99.90
15107;DHT22;7654;45.308;-75.096;2023-04-25T15:24:53;10.80;99.90
15107;DHT22;7654;45.308;-75.096;2023-04-25T15:27:24;10.80;99.90
15107;DHT22;7654;45.308;-75.096;2023-04-25T15:29:55;10.80;99.90
15107;DHT22;7654;45.308;-75.096;2023-04-25T15:32:27;10.70;99.90
15107;DHT22;7654;45.308;-75.096;2023-04-25T15:34:58;10.60;99.90
15107;DHT22;7654;45.308;-75.096;2023-04-25T15:37:28;10.80;99.90
15107;DHT22;7654;45.308;-75.096;2023-04-25T15:40:01;11.10;99.90
15107;DHT22;7654;45.308;-75.096;2023-04-25T15:42:37;11.00;99.90
15107;DHT22;7654;45.308;-75.096;2023-04-25T15:45:08;10.80;99.90
15107;DHT22;7654;45.308;-75.096;2023-04-25T15:47:40;10.40;99.90
15107;DHT22;7654;45.308;-75.096;2023-04-25T15:50:12;10.30;99.90
15107;DHT22;7654;45.308;-75.096;2023-04-25T15:52:42;10.30;99.90
15107;DHT22;7654;45.308;-75.096;2023-04-25T15:55:13;10.50;99.90
15107;DHT22;7654;45.308;-75.096;2023-04-25T15:57:44;10.90;99.90